WESTPORT MEDIA Westport In The Media

Enter your "Place, State", US Zip Code or ICAO:  

Nice, France

 Lat: 43.65N, Lon: 7.20E
ICAO Used: LFMN
Current Conditions
Updated: 3:00 PM GMT1 SUN SEP 21 2014
Sun & Moon Information
Mostly Cloudy
Mostly Cloudy
Temp: 24°C
Humidity: 69%
Wind Speed: ESE 6 MPH
Barometer: 1013 mb
Dewpoint: 18°C
Heat Index: 25°C
Wind Chill: 24°C
Civil Twilight: 5:46 AM GMT1 Moon Phase:
Waning Crescent Moon
Sunrise: 6:15 AM GMT1
Sunset: 6:32 PM GMT1
Civil Twilight: 7:00 PM GMT1
Forecast for Nice, France:
(Forecast based on TAF for )
0100 AM GMT1 SUN SEP 21 2014
  
MORNING AFTERNOON EVENING OVERNIGHT
Partly
Cloudy
Partly
Cloudy
Partly
Cloudy
Partly
Cloudy
ZoneCast:
Dated: 0100 AM GMT1 SUN SEP 21 2014
Morning...Becoming partly cloudy.

Afternoon...Partly cloudy.

Evening...Partly cloudy.

Overnight...Partly cloudy.

Original Encoded TAF:
Dated: 0100 AM GMT1 SUN SEP 21 2014
TAF LFMN 211100Z 2112/2218 16006KT 9999 FEW020 
     PROB30 
     TEMPO 2118/2120 26010KT 
     TEMPO 2200/2206 BKN015 
     BECMG 2208/2210 FEW030